createdAt,value
2022-11-17T00:02:38.628Z,9.40
2022-11-17T00:06:20.915Z,9.50
2022-11-17T00:10:03.170Z,9.60
2022-11-17T00:14:03.408Z,9.70
2022-11-17T00:18:09.759Z,9.50
2022-11-17T00:21:53.169Z,9.50
2022-11-17T00:25:34.993Z,9.60
2022-11-17T00:29:16.811Z,9.50
2022-11-17T00:33:23.795Z,9.70
2022-11-17T00:37:06.015Z,9.40
2022-11-17T00:40:47.866Z,9.60
2022-11-17T00:44:30.527Z,9.70
2022-11-17T00:48:12.553Z,9.50
2022-11-17T00:51:55.676Z,9.60
2022-11-17T00:55:37.535Z,9.70
2022-11-17T00:59:19.487Z,9.70
2022-11-17T01:03:01.309Z,9.40
2022-11-17T01:06:46.144Z,9.70
2022-11-17T01:10:27.969Z,9.50
2022-11-17T01:14:14.734Z,9.70
2022-11-17T01:17:56.606Z,9.40
2022-11-17T01:21:38.599Z,9.50
2022-11-17T01:25:20.435Z,9.60
2022-11-17T01:29:03.793Z,9.40
2022-11-17T01:32:45.723Z,9.60
2022-11-17T01:36:51.462Z,9.30
2022-11-17T01:40:33.330Z,9.40
2022-11-17T01:44:52.917Z,9.50
2022-11-17T01:48:34.884Z,9.30
2022-11-17T01:52:17.597Z,9.30
2022-11-17T01:56:07.550Z,9.30
2022-11-17T01:59:53.839Z,9.40
2022-11-17T02:03:37.551Z,9.50
2022-11-17T02:07:28.374Z,9.30
2022-11-17T02:11:15.487Z,9.30
2022-11-17T02:14:57.328Z,9.60
2022-11-17T02:18:40.590Z,9.30
2022-11-17T02:22:44.215Z,9.50
2022-11-17T02:26:35.131Z,9.30
2022-11-17T02:30:22.355Z,9.30
2022-11-17T02:34:04.009Z,9.30
2022-11-17T02:38:22.275Z,9.40
2022-11-17T02:42:19.423Z,9.40
2022-11-17T02:46:04.651Z,9.40
2022-11-17T02:49:57.028Z,9.50
2022-11-17T02:53:39.669Z,9.50
2022-11-17T02:57:32.629Z,9.40
2022-11-17T03:01:33.132Z,9.20
2022-11-17T03:05:37.281Z,9.20
2022-11-17T03:09:29.415Z,9.20
2022-11-17T03:13:33.756Z,9.10
2022-11-17T03:17:59.507Z,9.30
2022-11-17T03:21:41.363Z,9.00
2022-11-17T03:25:25.392Z,9.00
2022-11-17T03:29:12.655Z,9.20
2022-11-17T03:32:56.851Z,8.90
2022-11-17T03:36:43.018Z,8.90
2022-11-17T03:40:29.055Z,9.00
2022-11-17T03:44:14.915Z,9.00
2022-11-17T03:48:21.212Z,9.10
2022-11-17T03:52:04.109Z,9.00
2022-11-17T03:55:50.032Z,9.00
2022-11-17T03:59:55.791Z,9.10
2022-11-17T04:03:38.361Z,9.10
2022-11-17T04:07:20.255Z,9.00
2022-11-17T04:11:20.653Z,9.10
2022-11-17T04:15:21.114Z,9.10
2022-11-17T04:19:02.986Z,9.20
2022-11-17T04:22:44.873Z,9.00
2022-11-17T04:26:45.211Z,9.10
2022-11-17T04:30:27.032Z,9.30
2022-11-17T04:34:08.902Z,9.10
2022-11-17T04:37:50.703Z,9.30
2022-11-17T04:41:53.307Z,9.40
2022-11-17T04:45:35.074Z,9.30
2022-11-17T04:49:18.692Z,9.30
2022-11-17T04:53:00.517Z,9.30
2022-11-17T04:56:42.588Z,9.20
2022-11-17T05:00:24.370Z,9.30
2022-11-17T05:04:11.305Z,9.40
2022-11-17T05:07:53.209Z,9.30
2022-11-17T05:11:53.754Z,9.40
2022-11-17T05:15:54.184Z,9.50
2022-11-17T05:19:45.254Z,9.50
2022-11-17T05:23:48.557Z,9.40
2022-11-17T05:27:30.499Z,9.60
2022-11-17T05:31:12.383Z,9.50
2022-11-17T05:34:54.171Z,9.40
2022-11-17T05:38:36.011Z,9.70
2022-11-17T05:42:17.788Z,9.50
2022-11-17T05:45:59.575Z,9.40
2022-11-17T05:49:41.354Z,9.40
2022-11-17T05:53:24.289Z,9.60
2022-11-17T05:57:30.616Z,9.60
2022-11-17T06:01:15.479Z,9.50
2022-11-17T06:04:57.248Z,9.40
2022-11-17T06:08:39.095Z,9.40
2022-11-17T06:12:20.882Z,9.50
2022-11-17T06:16:07.898Z,9.50
2022-11-17T06:19:55.752Z,9.30
2022-11-17T06:23:38.346Z,9.50
2022-11-17T06:27:20.271Z,9.40
2022-11-17T06:31:02.543Z,9.40
2022-11-17T06:34:51.956Z,9.60
2022-11-17T06:38:36.944Z,9.40
2022-11-17T06:42:18.762Z,9.50
2022-11-17T06:46:05.008Z,9.50
2022-11-17T06:49:46.834Z,9.50
2022-11-17T06:53:28.809Z,9.40
2022-11-17T06:57:10.653Z,9.50
2022-11-17T07:00:52.556Z,9.40
2022-11-17T07:04:34.467Z,9.60
2022-11-17T07:08:16.358Z,9.30
2022-11-17T07:11:58.185Z,9.30
2022-11-17T07:15:39.974Z,9.30
2022-11-17T07:19:21.826Z,9.20
2022-11-17T07:23:03.872Z,9.30
2022-11-17T07:26:45.820Z,9.30
2022-11-17T07:30:28.242Z,9.30
2022-11-17T07:34:10.237Z,9.30
2022-11-17T07:37:52.113Z,9.20
2022-11-17T07:41:33.992Z,9.30
2022-11-17T07:45:17.069Z,9.10
2022-11-17T07:48:58.892Z,9.40
2022-11-17T07:52:41.714Z,9.40
2022-11-17T07:56:23.652Z,9.30
2022-11-17T08:00:05.886Z,9.40
2022-11-17T08:03:47.896Z,9.40
2022-11-17T08:07:30.021Z,9.50
2022-11-17T08:11:13.035Z,9.30
2022-11-17T08:14:54.961Z,9.40
2022-11-17T08:18:37.596Z,9.40
2022-11-17T08:22:19.612Z,9.60
2022-11-17T08:26:05.634Z,9.70
2022-11-17T08:29:47.687Z,9.50
2022-11-17T08:33:29.866Z,9.60
2022-11-17T08:37:11.656Z,9.80
2022-11-17T08:40:53.462Z,9.70
2022-11-17T08:44:35.328Z,9.80
2022-11-17T08:48:17.191Z,9.80
2022-11-17T08:51:58.988Z,9.80
2022-11-17T08:55:41.561Z,9.90
2022-11-17T08:59:23.562Z,9.80
2022-11-17T09:03:06.758Z,9.80
2022-11-17T09:06:48.643Z,10.00
2022-11-17T09:10:30.423Z,10.10
2022-11-17T09:14:12.243Z,10.00
2022-11-17T09:17:54.057Z,10.10
2022-11-17T09:21:35.881Z,10.20
2022-11-17T09:25:17.690Z,10.40
2022-11-17T09:29:03.608Z,10.50
2022-11-17T09:32:47.359Z,10.80
2022-11-17T09:36:29.202Z,11.10
2022-11-17T09:40:15.544Z,11.70
2022-11-17T09:44:06.780Z,12.30
2022-11-17T09:48:39.613Z,13.10
2022-11-17T09:52:42.678Z,13.90
2022-11-17T09:56:27.304Z,14.80
2022-11-17T10:00:22.974Z,15.70
2022-11-17T10:04:12.534Z,16.30
2022-11-17T10:07:59.930Z,16.80
2022-11-17T10:11:44.165Z,17.50
2022-11-17T10:15:31.196Z,17.70
2022-11-17T10:19:22.235Z,18.00
2022-11-17T10:23:04.636Z,18.30
2022-11-17T10:26:48.513Z,18.60
2022-11-17T10:30:30.408Z,18.70
2022-11-17T10:34:31.962Z,18.60
2022-11-17T10:38:22.916Z,18.90
2022-11-17T10:42:29.353Z,19.20
2022-11-17T10:46:16.732Z,19.30
2022-11-17T10:50:19.908Z,19.40
2022-11-17T10:54:10.654Z,19.10
2022-11-17T10:58:01.133Z,19.00
2022-11-17T11:01:45.395Z,18.90
2022-11-17T11:05:27.247Z,18.10
2022-11-17T11:09:20.725Z,17.70
2022-11-17T11:13:19.298Z,16.90
2022-11-17T11:17:09.181Z,16.50
2022-11-17T11:21:07.801Z,16.20
2022-11-17T11:25:07.938Z,15.80
2022-11-17T11:29:22.725Z,15.50
2022-11-17T11:33:25.168Z,15.60
2022-11-17T11:37:11.257Z,15.30
2022-11-17T11:41:28.128Z,15.00
2022-11-17T11:45:15.731Z,15.40
2022-11-17T11:49:03.136Z,15.40
2022-11-17T11:53:19.836Z,15.10
2022-11-17T11:57:02.311Z,15.00
2022-11-17T12:00:45.396Z,14.70
2022-11-17T12:04:47.824Z,14.40
2022-11-17T12:08:38.051Z,14.40
2022-11-17T12:12:33.855Z,14.30
2022-11-17T12:16:31.925Z,14.30
2022-11-17T12:20:38.699Z,14.50
2022-11-17T12:24:36.458Z,14.40
2022-11-17T12:28:32.043Z,14.40
2022-11-17T12:32:59.866Z,14.20
2022-11-17T12:36:41.709Z,14.10
2022-11-17T12:40:38.448Z,14.00
2022-11-17T12:44:38.434Z,14.00
2022-11-17T12:48:35.473Z,14.00
2022-11-17T12:52:26.061Z,14.20
2022-11-17T12:56:20.269Z,14.20
2022-11-17T13:00:23.307Z,14.10
2022-11-17T13:04:22.891Z,14.20
2022-11-17T13:08:22.917Z,14.20
2022-11-17T13:12:07.017Z,14.20
2022-11-17T13:15:52.027Z,14.10
2022-11-17T13:19:41.691Z,14.00
2022-11-17T13:23:29.185Z,13.90
2022-11-17T13:27:30.204Z,14.00
2022-11-17T13:31:26.031Z,14.10
2022-11-17T13:35:24.254Z,14.20
2022-11-17T13:39:19.604Z,14.40
2022-11-17T13:43:04.836Z,14.30
2022-11-17T13:46:46.720Z,14.10
2022-11-17T13:50:31.406Z,14.00
2022-11-17T13:54:13.471Z,13.80
2022-11-17T13:57:57.090Z,13.50
2022-11-17T14:01:38.919Z,13.40
2022-11-17T14:05:33.552Z,13.40
2022-11-17T14:09:18.904Z,13.30
2022-11-17T14:13:00.672Z,13.20
2022-11-17T14:16:42.545Z,13.30
2022-11-17T14:20:24.483Z,13.50
2022-11-17T14:24:11.665Z,13.80
2022-11-17T14:27:53.638Z,14.60
2022-11-17T14:31:35.470Z,15.50
2022-11-17T14:39:01.183Z,16.70
2022-11-17T14:42:43.028Z,16.70
2022-11-17T14:46:26.795Z,16.70
2022-11-17T14:50:18.638Z,16.80
2022-11-17T14:54:00.568Z,16.30
2022-11-17T14:57:42.519Z,15.50
2022-11-17T15:01:30.468Z,14.80
2022-11-17T15:05:12.605Z,14.40
2022-11-17T15:08:56.260Z,14.20
2022-11-17T15:12:38.036Z,13.80
2022-11-17T15:16:19.900Z,13.70
2022-11-17T15:20:01.715Z,13.50
2022-11-17T15:23:44.350Z,13.40
2022-11-17T15:27:26.192Z,13.50
2022-11-17T15:31:12.806Z,13.20
2022-11-17T15:34:54.577Z,13.20
2022-11-17T15:38:38.287Z,13.00
2022-11-17T15:42:20.096Z,12.70
2022-11-17T15:46:04.431Z,12.70
2022-11-17T15:49:46.887Z,12.60
2022-11-17T15:53:33.253Z,12.30
2022-11-17T15:57:15.016Z,12.20
2022-11-17T16:01:08.309Z,12.00
2022-11-17T16:04:50.173Z,11.90
2022-11-17T16:08:32.507Z,11.90
2022-11-17T16:12:14.372Z,11.90
2022-11-17T16:15:56.432Z,11.80
2022-11-17T16:19:38.217Z,11.60
2022-11-17T16:23:20.277Z,11.60
2022-11-17T16:27:02.514Z,11.70
2022-11-17T16:30:44.630Z,11.60
2022-11-17T16:34:26.576Z,11.50
2022-11-17T16:38:14.200Z,11.30
2022-11-17T16:41:56.000Z,11.20
2022-11-17T16:45:44.878Z,11.20
2022-11-17T16:49:26.762Z,11.20
2022-11-17T16:53:09.018Z,11.20
2022-11-17T16:56:50.786Z,11.30
2022-11-17T17:00:33.460Z,11.00
2022-11-17T17:04:15.346Z,11.00
2022-11-17T17:07:57.224Z,11.10
2022-11-17T17:11:39.659Z,10.90
2022-11-17T17:15:21.441Z,10.90
2022-11-17T17:19:05.285Z,11.00
2022-11-17T17:22:47.101Z,10.80
2022-11-17T17:26:30.760Z,10.90
2022-11-17T17:30:13.164Z,10.90
2022-11-17T17:33:56.040Z,10.90
2022-11-17T17:37:37.867Z,10.80
2022-11-17T17:41:20.533Z,10.80
2022-11-17T17:45:02.346Z,10.60
2022-11-17T17:48:45.479Z,10.70
2022-11-17T17:52:27.282Z,10.60
2022-11-17T17:56:14.176Z,10.40
2022-11-17T17:59:55.952Z,10.50
2022-11-17T18:03:38.955Z,10.40
2022-11-17T18:07:20.911Z,10.40
2022-11-17T18:11:06.129Z,10.50
2022-11-17T18:14:48.032Z,10.40
2022-11-17T18:18:29.829Z,10.40
2022-11-17T18:22:11.651Z,10.20
2022-11-17T18:25:53.632Z,10.30
2022-11-17T18:29:35.477Z,10.10
2022-11-17T18:33:17.333Z,10.10
2022-11-17T18:36:59.142Z,10.10
2022-11-17T18:40:40.935Z,10.00
2022-11-17T18:44:22.733Z,10.10
2022-11-17T18:48:05.681Z,10.00
2022-11-17T18:51:47.630Z,10.10
2022-11-17T18:55:29.417Z,9.90
2022-11-17T18:59:12.878Z,9.90
2022-11-17T19:02:54.810Z,9.90
2022-11-17T19:06:37.281Z,10.00
2022-11-17T19:10:19.158Z,10.00
2022-11-17T19:14:02.431Z,9.80
2022-11-17T19:17:44.325Z,9.80
2022-11-17T19:21:31.675Z,9.90
2022-11-17T19:25:13.536Z,9.90
2022-11-17T19:28:57.336Z,9.70
2022-11-17T19:32:39.148Z,9.90
2022-11-17T19:36:23.651Z,9.70
2022-11-17T19:40:05.902Z,9.70
2022-11-17T19:43:48.175Z,9.60
2022-11-17T19:47:30.430Z,9.60
2022-11-17T19:51:22.713Z,9.70
2022-11-17T19:55:04.847Z,9.70
2022-11-17T19:58:47.140Z,9.70
2022-11-17T20:02:29.009Z,9.80
2022-11-17T20:06:13.517Z,9.50
2022-11-17T20:09:55.322Z,9.50
2022-11-17T20:13:38.360Z,9.60
2022-11-17T20:17:20.111Z,9.60
2022-11-17T20:21:05.417Z,9.40
2022-11-17T20:24:47.260Z,9.50
2022-11-17T20:28:32.299Z,9.60
2022-11-17T20:32:14.096Z,9.40
2022-11-17T20:35:59.464Z,9.50
2022-11-17T20:39:41.270Z,9.20
2022-11-17T20:43:23.224Z,9.30
2022-11-17T20:47:05.210Z,9.20
2022-11-17T20:51:09.777Z,9.30
2022-11-17T20:54:51.567Z,9.20
2022-11-17T20:58:33.632Z,9.30
2022-11-17T21:02:15.472Z,9.10
2022-11-17T21:05:59.668Z,9.20
2022-11-17T21:09:41.624Z,9.10
2022-11-17T21:13:24.645Z,9.30
2022-11-17T21:17:26.469Z,9.10
2022-11-17T21:21:11.491Z,9.10
2022-11-17T21:24:53.323Z,9.10
2022-11-17T21:28:36.951Z,9.10
2022-11-17T21:32:18.747Z,9.20
2022-11-17T21:36:05.551Z,9.00
2022-11-17T21:39:47.411Z,9.00
2022-11-17T21:43:29.884Z,9.10
2022-11-17T21:47:12.168Z,9.00
2022-11-17T21:50:54.700Z,9.20
2022-11-17T21:54:36.475Z,9.10
2022-11-17T21:58:18.324Z,9.10
2022-11-17T22:02:00.205Z,9.20
2022-11-17T22:05:41.985Z,9.30
2022-11-17T22:09:23.785Z,9.20
2022-11-17T22:13:08.247Z,9.40
2022-11-17T22:16:52.232Z,9.30
2022-11-17T22:20:34.264Z,9.40
2022-11-17T22:24:16.652Z,9.30
2022-11-17T22:27:58.462Z,9.50
2022-11-17T22:31:40.266Z,9.50
2022-11-17T22:35:22.064Z,9.50
2022-11-17T22:39:04.310Z,9.40
2022-11-17T22:42:46.136Z,9.50
2022-11-17T22:46:28.902Z,9.40
2022-11-17T22:50:10.698Z,9.60
2022-11-17T22:53:52.453Z,9.50
2022-11-17T22:57:34.271Z,9.60
2022-11-17T23:01:16.057Z,9.40
2022-11-17T23:04:57.911Z,9.70
2022-11-17T23:08:39.768Z,9.60
2022-11-17T23:12:21.651Z,9.70
2022-11-17T23:16:05.948Z,9.50
2022-11-17T23:19:48.107Z,9.70
2022-11-17T23:23:36.333Z,9.50
2022-11-17T23:27:18.228Z,9.50
2022-11-17T23:31:05.486Z,9.60
2022-11-17T23:34:47.180Z,9.70
2022-11-17T23:38:31.607Z,9.70
2022-11-17T23:42:13.406Z,9.50
2022-11-17T23:45:56.101Z,9.50
2022-11-17T23:49:37.941Z,9.50
2022-11-17T23:53:19.735Z,9.60
2022-11-17T23:57:01.544Z,9.60
